Time;durP1;ratioP1;P1;durP2;ratioP2;P2;SDS_P1;SDS_P2;PMS_P1;PMS_P2;Temp;Humidity;BMP_temperature;BMP_pressure;BME280_temperature;BME280_humidity;BME280_pressure;Samples;Min_cycle;Max_cycle;Signal;HPM_P1;HPM_P2
2024/01/18 00:00:18;;;;;;;14.23;11.00;;;;;;;;;;5090552;28;20483;-55
2024/01/18 00:02:44;;;;;;;15.27;11.60;;;;;;;;;;5090188;28;20204;-54
2024/01/18 00:05:10;;;;;;;14.60;10.77;;;;;;;;;;5089294;28;20172;-53
2024/01/18 00:07:36;;;;;;;16.07;12.07;;;;;;;;;;5089275;28;20225;-52
2024/01/18 00:10:02;;;;;;;17.67;11.57;;;;;;;;;;5091189;28;20333;-57
2024/01/18 00:12:28;;;;;;;16.70;11.87;;;;;;;;;;5090923;28;20241;-57
2024/01/18 00:14:54;;;;;;;16.20;11.67;;;;;;;;;;5090424;28;20227;-57
2024/01/18 00:17:20;;;;;;;15.07;11.10;;;;;;;;;;5090985;28;20172;-54
2024/01/18 00:19:46;;;;;;;18.70;12.03;;;;;;;;;;5089710;28;20404;-56
2024/01/18 00:22:12;;;;;;;17.40;11.43;;;;;;;;;;5091050;28;20203;-55
2024/01/18 00:24:38;;;;;;;16.47;11.70;;;;;;;;;;5091495;28;20183;-55
2024/01/18 00:27:04;;;;;;;15.73;11.10;;;;;;;;;;5091215;28;20176;-55
2024/01/18 00:29:31;;;;;;;17.67;11.83;;;;;;;;;;5089301;28;20186;-54
2024/01/18 00:31:57;;;;;;;17.33;12.23;;;;;;;;;;5089224;28;20607;-54
2024/01/18 00:34:23;;;;;;;15.83;12.67;;;;;;;;;;5090080;28;20267;-54
2024/01/18 00:36:50;;;;;;;18.17;12.37;;;;;;;;;;5090072;28;20271;-51
2024/01/18 00:39:19;;;;;;;21.33;12.03;;;;;;;;;;5090545;28;20297;-55
2024/01/18 00:41:45;;;;;;;18.33;11.83;;;;;;;;;;5091247;28;20208;-51
2024/01/18 00:44:11;;;;;;;17.20;12.33;;;;;;;;;;5089819;28;20172;-54
2024/01/18 00:46:38;;;;;;;19.70;12.93;;;;;;;;;;5089968;28;20176;-52
2024/01/18 00:49:07;;;;;;;22.10;12.70;;;;;;;;;;5089324;28;20326;-55
2024/01/18 00:51:32;;;;;;;19.03;12.23;;;;;;;;;;5089053;28;20377;-52
2024/01/18 00:53:59;;;;;;;18.47;11.30;;;;;;;;;;5088561;28;20183;-53
2024/01/18 00:56:25;;;;;;;21.53;12.37;;;;;;;;;;5090041;28;20176;-55
2024/01/18 00:58:51;;;;;;;16.93;12.40;;;;;;;;;;5090926;28;20187;-52
2024/01/18 01:01:17;;;;;;;18.17;11.63;;;;;;;;;;5089631;28;20192;-55
2024/01/18 01:03:43;;;;;;;19.63;11.90;;;;;;;;;;5090983;28;20179;-53
2024/01/18 01:06:10;;;;;;;20.40;11.83;;;;;;;;;;5091625;28;20171;-55
2024/01/18 01:08:36;;;;;;;21.87;12.83;;;;;;;;;;5091817;28;20176;-54
2024/01/18 01:11:08;;;;;;;15.50;11.23;;;;;;;;;;5090142;28;20179;-52
2024/01/18 01:13:34;;;;;;;20.83;13.00;;;;;;;;;;5096080;28;20219;-54
2024/01/18 01:16:00;;;;;;;18.50;12.03;;;;;;;;;;5092610;28;20647;-54
2024/01/18 01:18:26;;;;;;;16.47;10.60;;;;;;;;;;5092626;28;20251;-56
2024/01/18 01:20:54;;;;;;;19.70;11.97;;;;;;;;;;5092763;28;20167;-54
2024/01/18 01:23:20;;;;;;;16.83;11.87;;;;;;;;;;5092429;28;20265;-56
2024/01/18 01:25:46;;;;;;;16.20;11.07;;;;;;;;;;5090960;28;20414;-50
2024/01/18 01:28:12;;;;;;;18.33;11.87;;;;;;;;;;5091247;28;20175;-54
2024/01/18 01:30:38;;;;;;;21.23;13.63;;;;;;;;;;5092201;28;20178;-54
2024/01/18 01:33:04;;;;;;;17.43;11.60;;;;;;;;;;5109068;28;20278;-57
2024/01/18 01:35:30;;;;;;;19.13;12.37;;;;;;;;;;5093544;28;20206;-56
2024/01/18 01:37:56;;;;;;;18.37;11.83;;;;;;;;;;5092601;28;20261;-57
2024/01/18 01:40:22;;;;;;;17.97;12.77;;;;;;;;;;5094523;28;20183;-57
2024/01/18 01:42:48;;;;;;;18.63;12.03;;;;;;;;;;5097017;28;20207;-54
2024/01/18 01:45:14;;;;;;;18.17;12.63;;;;;;;;;;5096622;28;20197;-53
2024/01/18 01:47:42;;;;;;;16.70;11.27;;;;;;;;;;5115652;28;20218;-57
2024/01/18 01:50:08;;;;;;;18.63;12.60;;;;;;;;;;5098166;28;20241;-52
2024/01/18 01:52:36;;;;;;;16.40;11.73;;;;;;;;;;5096025;28;20177;-55
2024/01/18 01:55:02;;;;;;;17.20;11.77;;;;;;;;;;5097153;28;20270;-55
2024/01/18 01:57:29;;;;;;;19.60;12.40;;;;;;;;;;5113543;28;20677;-56
2024/01/18 01:59:56;;;;;;;20.90;13.37;;;;;;;;;;5096053;28;20175;-55
2024/01/18 02:02:25;;;;;;;16.93;12.07;;;;;;;;;;5095724;28;20234;-53
2024/01/18 02:04:52;;;;;;;17.80;12.27;;;;;;;;;;5113884;28;20484;-56
2024/01/18 02:07:19;;;;;;;17.77;12.43;;;;;;;;;;5095183;28;20232;-53
2024/01/18 02:09:46;;;;;;;17.50;12.17;;;;;;;;;;5095651;28;20203;-55
2024/01/18 02:12:12;;;;;;;18.63;12.00;;;;;;;;;;5096669;28;20244;-55
2024/01/18 02:14:40;;;;;;;18.93;12.70;;;;;;;;;;5092840;28;20227;-55
2024/01/18 02:17:06;;;;;;;21.93;12.83;;;;;;;;;;5092094;28;20184;-55
2024/01/18 02:19:32;;;;;;;15.20;11.57;;;;;;;;;;5092021;28;20176;-54
2024/01/18 02:22:02;;;;;;;17.80;12.63;;;;;;;;;;5091229;28;20212;-53
2024/01/18 02:24:42;;;;;;;18.87;12.60;;;;;;;;;;5091229;28;20735;-57
2024/01/18 02:27:08;;;;;;;16.97;12.33;;;;;;;;;;5092675;28;20583;-57
2024/01/18 02:29:34;;;;;;;21.73;12.13;;;;;;;;;;5092358;28;20203;-53
2024/01/18 02:32:00;;;;;;;19.17;11.60;;;;;;;;;;5091613;28;20172;-56
2024/01/18 02:34:26;;;;;;;16.43;11.77;;;;;;;;;;5093592;28;20269;-54
2024/01/18 02:36:52;;;;;;;17.23;12.63;;;;;;;;;;5094816;28;20172;-52
2024/01/18 02:39:18;;;;;;;17.83;12.17;;;;;;;;;;5094390;28;20618;-57
2024/01/18 02:41:44;;;;;;;15.97;11.57;;;;;;;;;;5092509;28;20215;-55
2024/01/18 02:44:10;;;;;;;18.47;11.67;;;;;;;;;;5093539;28;20164;-54
2024/01/18 02:46:36;;;;;;;17.07;11.33;;;;;;;;;;5093392;28;20292;-54
2024/01/18 02:49:02;;;;;;;19.87;12.20;;;;;;;;;;5092291;28;20198;-49
2024/01/18 02:51:28;;;;;;;17.07;11.50;;;;;;;;;;5093358;28;20168;-54
2024/01/18 02:53:55;;;;;;;15.37;11.90;;;;;;;;;;5093338;28;20237;-52
2024/01/18 02:56:22;;;;;;;17.77;11.63;;;;;;;;;;5090671;28;20237;-56
2024/01/18 02:58:48;;;;;;;14.83;11.67;;;;;;;;;;5086245;28;20608;-55
2024/01/18 03:01:14;;;;;;;17.03;13.03;;;;;;;;;;5088188;28;20534;-56
2024/01/18 03:03:40;;;;;;;17.63;12.63;;;;;;;;;;5087945;28;20440;-56
2024/01/18 03:06:06;;;;;;;14.97;11.13;;;;;;;;;;5089979;28;20268;-56
2024/01/18 03:08:33;;;;;;;26.67;12.67;;;;;;;;;;5088133;28;20502;-54
2024/01/18 03:10:59;;;;;;;23.77;12.77;;;;;;;;;;5090309;28;20267;-53
2024/01/18 03:13:25;;;;;;;19.87;13.00;;;;;;;;;;5089344;28;20330;-56
2024/01/18 03:15:52;;;;;;;18.83;11.90;;;;;;;;;;5091004;28;20184;-55
2024/01/18 03:18:18;;;;;;;18.67;12.63;;;;;;;;;;5092815;28;20178;-53
2024/01/18 03:20:44;;;;;;;15.43;10.63;;;;;;;;;;5092476;28;20284;-53
2024/01/18 03:23:11;;;;;;;17.00;10.57;;;;;;;;;;5092825;28;20206;-55
2024/01/18 03:25:38;;;;;;;18.57;11.63;;;;;;;;;;5092595;28;20206;-54
2024/01/18 03:28:04;;;;;;;18.47;12.63;;;;;;;;;;5092589;28;20287;-55
2024/01/18 03:30:31;;;;;;;17.33;12.50;;;;;;;;;;5092156;28;20259;-55
2024/01/18 03:32:57;;;;;;;16.97;12.07;;;;;;;;;;5093145;28;20246;-54
2024/01/18 03:35:22;;;;;;;24.00;12.63;;;;;;;;;;5092810;28;20180;-56
2024/01/18 03:37:48;;;;;;;18.33;12.20;;;;;;;;;;5091669;28;20233;-56
2024/01/18 03:40:14;;;;;;;17.17;12.10;;;;;;;;;;5093338;28;20168;-57
2024/01/18 03:42:41;;;;;;;17.83;11.77;;;;;;;;;;5092540;28;20211;-56
2024/01/18 03:45:07;;;;;;;20.03;11.83;;;;;;;;;;5092624;28;20172;-56
2024/01/18 03:47:33;;;;;;;16.07;11.27;;;;;;;;;;5092667;28;20217;-53
2024/01/18 03:50:00;;;;;;;16.77;11.23;;;;;;;;;;5092459;28;20256;-54
2024/01/18 03:52:26;;;;;;;22.23;12.63;;;;;;;;;;5091353;28;20172;-57
2024/01/18 03:54:52;;;;;;;19.73;12.67;;;;;;;;;;5092198;28;20183;-56
2024/01/18 03:57:18;;;;;;;16.83;12.17;;;;;;;;;;5091286;28;20180;-53
2024/01/18 03:59:46;;;;;;;16.83;12.07;;;;;;;;;;5092408;28;20178;-54
2024/01/18 04:02:13;;;;;;;20.03;11.40;;;;;;;;;;5092105;28;20191;-56
2024/01/18 04:04:39;;;;;;;13.60;10.97;;;;;;;;;;5091448;28;20170;-55
2024/01/18 04:07:05;;;;;;;16.00;10.90;;;;;;;;;;5089964;28;20228;-55
2024/01/18 04:09:31;;;;;;;18.43;13.13;;;;;;;;;;5090230;28;20266;-56
2024/01/18 04:11:57;;;;;;;20.77;12.87;;;;;;;;;;5091470;28;20180;-55
2024/01/18 04:14:23;;;;;;;18.77;11.60;;;;;;;;;;5103297;28;20543;-52
2024/01/18 04:16:49;;;;;;;17.53;11.70;;;;;;;;;;5111517;28;20186;-55
2024/01/18 04:19:16;;;;;;;15.33;11.63;;;;;;;;;;5110368;28;20179;-56
2024/01/18 04:21:43;;;;;;;20.07;11.43;;;;;;;;;;5109769;28;20514;-53
2024/01/18 04:24:10;;;;;;;18.40;12.30;;;;;;;;;;5110232;28;20167;-54
2024/01/18 04:26:36;;;;;;;14.17;10.90;;;;;;;;;;5091618;28;20539;-54
2024/01/18 04:29:02;;;;;;;18.77;11.80;;;;;;;;;;5092489;28;20169;-52
2024/01/18 04:31:28;;;;;;;17.93;11.43;;;;;;;;;;5091879;28;20172;-53
2024/01/18 04:33:55;;;;;;;17.03;11.47;;;;;;;;;;5093172;28;20234;-55
2024/01/18 04:36:21;;;;;;;15.03;11.10;;;;;;;;;;5111186;28;20333;-52
2024/01/18 04:38:47;;;;;;;15.83;11.40;;;;;;;;;;5092678;28;20179;-55
2024/01/18 04:41:15;;;;;;;15.60;11.33;;;;;;;;;;5110709;28;20592;-52
2024/01/18 04:43:41;;;;;;;17.07;11.90;;;;;;;;;;5091224;28;20167;-53
2024/01/18 04:49:10;;;;;;;15.90;11.13;;;;;;;;;;5112430;28;20206;-57
2024/01/18 04:51:36;;;;;;;18.20;12.13;;;;;;;;;;5111638;28;20194;-56
2024/01/18 04:54:02;;;;;;;17.17;11.60;;;;;;;;;;5094150;28;20179;-56
2024/01/18 04:56:28;;;;;;;16.27;12.30;;;;;;;;;;5091882;28;20171;-56
2024/01/18 04:58:54;;;;;;;15.17;11.43;;;;;;;;;;5110025;28;20168;-55
2024/01/18 05:01:20;;;;;;;18.80;11.47;;;;;;;;;;5093199;28;20175;-56
2024/01/18 05:03:47;;;;;;;17.90;11.63;;;;;;;;;;5093273;28;20164;-55
2024/01/18 05:06:13;;;;;;;17.43;12.30;;;;;;;;;;5111658;28;20373;-56
2024/01/18 05:08:38;;;;;;;17.60;11.33;;;;;;;;;;5093697;28;20493;-55
2024/01/18 05:11:04;;;;;;;22.67;12.50;;;;;;;;;;5093939;28;20187;-56
2024/01/18 05:13:30;;;;;;;22.53;13.07;;;;;;;;;;5089867;28;20267;-55
2024/01/18 05:15:59;;;;;;;16.17;10.80;;;;;;;;;;5095362;28;20175;-56
2024/01/18 05:18:25;;;;;;;17.37;10.97;;;;;;;;;;5093157;28;20304;-55
2024/01/18 05:20:51;;;;;;;13.70;10.83;;;;;;;;;;5093951;28;20163;-53
2024/01/18 05:23:17;;;;;;;13.00;10.67;;;;;;;;;;5092181;28;20242;-55
2024/01/18 05:25:43;;;;;;;20.47;13.10;;;;;;;;;;5093392;28;20172;-54
2024/01/18 05:28:09;;;;;;;14.53;10.57;;;;;;;;;;5092338;28;20263;-56
2024/01/18 05:30:35;;;;;;;15.57;11.20;;;;;;;;;;5092864;28;20172;-53
2024/01/18 05:33:02;;;;;;;15.20;10.87;;;;;;;;;;5092408;28;20281;-54
2024/01/18 05:35:28;;;;;;;19.47;11.57;;;;;;;;;;5093893;28;20172;-53
2024/01/18 05:37:54;;;;;;;14.53;11.30;;;;;;;;;;5093691;28;20180;-56
2024/01/18 05:40:22;;;;;;;14.73;11.07;;;;;;;;;;5093030;28;20494;-56
2024/01/18 05:42:48;;;;;;;15.43;10.83;;;;;;;;;;5091962;28;20374;-53
2024/01/18 05:45:15;;;;;;;19.17;10.70;;;;;;;;;;5093270;28;20611;-53
2024/01/18 05:47:41;;;;;;;19.73;11.87;;;;;;;;;;5091682;28;20410;-55
2024/01/18 05:50:07;;;;;;;21.33;11.37;;;;;;;;;;5092209;28;20382;-55
2024/01/18 05:52:33;;;;;;;18.00;11.70;;;;;;;;;;5092985;28;20438;-53
2024/01/18 05:55:00;;;;;;;18.73;12.57;;;;;;;;;;5091279;28;20328;-52
2024/01/18 05:57:26;;;;;;;17.37;12.43;;;;;;;;;;5090929;28;20180;-57
2024/01/18 05:59:52;;;;;;;19.13;11.77;;;;;;;;;;5092264;28;20208;-53
2024/01/18 06:02:20;;;;;;;16.17;11.00;;;;;;;;;;5091104;28;20287;-54
2024/01/18 06:04:47;;;;;;;13.97;11.20;;;;;;;;;;5090792;28;20164;-53
2024/01/18 06:07:13;;;;;;;15.73;10.50;;;;;;;;;;5091171;28;20168;-55
2024/01/18 06:09:39;;;;;;;17.00;11.67;;;;;;;;;;5090997;28;20395;-55
2024/01/18 06:12:06;;;;;;;17.43;11.67;;;;;;;;;;5089888;28;20233;-55
2024/01/18 06:14:32;;;;;;;17.47;11.10;;;;;;;;;;5089531;28;20404;-53
2024/01/18 06:16:58;;;;;;;16.93;11.57;;;;;;;;;;5088321;28;20178;-51
2024/01/18 06:19:24;;;;;;;16.50;10.67;;;;;;;;;;5089495;28;20172;-54
2024/01/18 06:21:50;;;;;;;21.23;11.40;;;;;;;;;;5090484;28;20204;-53
2024/01/18 06:24:16;;;;;;;19.13;11.03;;;;;;;;;;5088803;28;20378;-54
2024/01/18 06:26:42;;;;;;;15.27;11.00;;;;;;;;;;5086613;28;20179;-55
2024/01/18 06:29:08;;;;;;;15.73;11.40;;;;;;;;;;5087644;28;20426;-56
2024/01/18 06:31:34;;;;;;;18.70;11.27;;;;;;;;;;5087865;28;20274;-53
2024/01/18 06:34:00;;;;;;;15.97;10.33;;;;;;;;;;5088409;28;20176;-53
2024/01/18 06:36:26;;;;;;;15.87;10.50;;;;;;;;;;5086647;28;20241;-55
2024/01/18 06:38:52;;;;;;;15.50;10.10;;;;;;;;;;5087275;28;20278;-55
2024/01/18 06:41:19;;;;;;;16.83;11.20;;;;;;;;;;5086442;28;20267;-55
2024/01/18 06:43:46;;;;;;;16.83;10.70;;;;;;;;;;5089042;28;20196;-52
2024/01/18 06:46:18;;;;;;;16.03;10.27;;;;;;;;;;5089079;28;20248;-55
2024/01/18 06:48:52;;;;;;;17.93;11.37;;;;;;;;;;5089949;28;20180;-52
2024/01/18 06:51:18;;;;;;;14.30;9.80;;;;;;;;;;5088119;28;20168;-56
2024/01/18 06:53:45;;;;;;;16.67;11.50;;;;;;;;;;5087610;28;20179;-56
2024/01/18 06:56:14;;;;;;;18.53;12.90;;;;;;;;;;5088015;28;20336;-54
2024/01/18 06:58:40;;;;;;;17.07;10.13;;;;;;;;;;5085903;28;20262;-56
2024/01/18 07:01:06;;;;;;;15.33;11.40;;;;;;;;;;5088128;28;20413;-55
2024/01/18 07:03:35;;;;;;;15.60;10.87;;;;;;;;;;5085312;28;20705;-56
2024/01/18 07:06:01;;;;;;;15.70;11.87;;;;;;;;;;5086612;28;20258;-56
2024/01/18 07:08:27;;;;;;;19.33;12.77;;;;;;;;;;5084481;28;20442;-56
2024/01/18 07:10:53;;;;;;;17.80;12.53;;;;;;;;;;5085539;28;20172;-55
2024/01/18 07:13:19;;;;;;;18.17;11.33;;;;;;;;;;5086828;28;20601;-54
2024/01/18 07:15:45;;;;;;;21.17;12.67;;;;;;;;;;5089596;28;20254;-54
2024/01/18 07:18:11;;;;;;;20.87;13.37;;;;;;;;;;5088613;28;20556;-55
2024/01/18 07:20:37;;;;;;;18.00;12.97;;;;;;;;;;5088128;28;20176;-55
2024/01/18 07:23:03;;;;;;;21.80;13.60;;;;;;;;;;5085534;28;20222;-55
2024/01/18 07:25:29;;;;;;;19.87;13.00;;;;;;;;;;5104002;28;20190;-56
2024/01/18 07:27:55;;;;;;;19.27;12.57;;;;;;;;;;5086711;28;20270;-54
2024/01/18 07:30:22;;;;;;;24.40;13.50;;;;;;;;;;5103738;28;20339;-54
2024/01/18 07:32:48;;;;;;;19.07;13.57;;;;;;;;;;5084732;28;20536;-52
2024/01/18 07:35:14;;;;;;;29.83;14.40;;;;;;;;;;5085303;28;20218;-54
2024/01/18 07:37:40;;;;;;;18.13;13.10;;;;;;;;;;5084502;28;20259;-55
2024/01/18 07:40:06;;;;;;;21.33;14.47;;;;;;;;;;5087057;28;20176;-52
2024/01/18 07:42:32;;;;;;;21.70;14.10;;;;;;;;;;5104360;28;20410;-53
2024/01/18 07:44:58;;;;;;;22.37;13.33;;;;;;;;;;5086051;28;20410;-56
2024/01/18 07:47:24;;;;;;;20.63;13.80;;;;;;;;;;5105050;28;20167;-55
2024/01/18 07:49:50;;;;;;;17.43;13.13;;;;;;;;;;5105899;28;20240;-55
2024/01/18 07:52:17;;;;;;;17.50;12.80;;;;;;;;;;5088829;28;20171;-56
2024/01/18 07:54:43;;;;;;;25.57;13.83;;;;;;;;;;5107566;28;20433;-51
2024/01/18 07:57:09;;;;;;;19.77;14.03;;;;;;;;;;5091194;28;20574;-56
2024/01/18 07:59:35;;;;;;;22.07;13.63;;;;;;;;;;5090782;28;20168;-51
2024/01/18 08:02:01;;;;;;;19.07;13.03;;;;;;;;;;5087308;28;20398;-54
2024/01/18 08:04:29;;;;;;;20.77;12.40;;;;;;;;;;5087520;28;20594;-52
2024/01/18 08:06:55;;;;;;;20.30;12.50;;;;;;;;;;5101738;28;20324;-54
2024/01/18 08:09:21;;;;;;;21.17;13.30;;;;;;;;;;5103229;28;20160;-57
2024/01/18 08:11:47;;;;;;;18.60;13.30;;;;;;;;;;5103789;28;20183;-54
2024/01/18 08:14:13;;;;;;;18.87;13.90;;;;;;;;;;5103933;28;20223;-51
2024/01/18 08:16:39;;;;;;;22.80;14.17;;;;;;;;;;5087512;28;20660;-53
2024/01/18 08:19:05;;;;;;;20.70;13.73;;;;;;;;;;5087069;28;20287;-55
2024/01/18 08:21:31;;;;;;;19.77;13.40;;;;;;;;;;5088787;28;20171;-53
2024/01/18 08:23:57;;;;;;;17.10;12.60;;;;;;;;;;5088751;28;20442;-52
2024/01/18 08:26:23;;;;;;;19.07;13.37;;;;;;;;;;5088671;28;20239;-51
2024/01/18 08:28:49;;;;;;;18.57;12.20;;;;;;;;;;5086969;28;20171;-52
2024/01/18 08:31:15;;;;;;;16.47;11.60;;;;;;;;;;5087193;28;20175;-50
2024/01/18 08:33:41;;;;;;;19.27;11.33;;;;;;;;;;5087363;28;20168;-52
2024/01/18 08:36:08;;;;;;;18.70;12.23;;;;;;;;;;5087685;28;20425;-55
2024/01/18 08:38:34;;;;;;;21.90;12.33;;;;;;;;;;5088500;28;20362;-53
2024/01/18 08:41:00;;;;;;;24.00;13.70;;;;;;;;;;5088595;28;20676;-53
2024/01/18 08:43:27;;;;;;;29.43;12.63;;;;;;;;;;5087335;28;20297;-55
2024/01/18 08:45:54;;;;;;;16.70;11.97;;;;;;;;;;5087979;28;20340;-55
2024/01/18 08:48:20;;;;;;;18.93;11.73;;;;;;;;;;5087860;28;20178;-55
2024/01/18 08:50:46;;;;;;;16.50;10.90;;;;;;;;;;5089090;28;20381;-53
2024/01/18 08:53:12;;;;;;;17.90;10.60;;;;;;;;;;5104816;28;20440;-54
2024/01/18 08:55:38;;;;;;;16.20;9.47;;;;;;;;;;5083277;28;20179;-55
2024/01/18 08:58:05;;;;;;;14.30;9.23;;;;;;;;;;5084325;28;20210;-54
2024/01/18 09:00:31;;;;;;;14.00;9.27;;;;;;;;;;5086031;28;20515;-55
2024/01/18 09:02:57;;;;;;;12.17;9.53;;;;;;;;;;5084605;28;20215;-57
2024/01/18 09:05:23;;;;;;;15.20;8.80;;;;;;;;;;5083632;28;20681;-51
2024/01/18 09:07:49;;;;;;;15.20;9.87;;;;;;;;;;5100969;28;20199;-53
2024/01/18 09:10:15;;;;;;;13.37;8.47;;;;;;;;;;5082106;28;20558;-54
2024/01/18 09:12:41;;;;;;;11.00;8.60;;;;;;;;;;5082035;28;20175;-55
2024/01/18 09:15:08;;;;;;;15.57;9.67;;;;;;;;;;5080554;28;20598;-54
2024/01/18 09:17:34;;;;;;;12.93;8.43;;;;;;;;;;5079327;28;20178;-56
2024/01/18 09:20:00;;;;;;;13.53;8.13;;;;;;;;;;5081151;28;20176;-55
2024/01/18 09:22:26;;;;;;;12.83;9.33;;;;;;;;;;5079716;28;20392;-53
2024/01/18 09:24:52;;;;;;;13.80;9.83;;;;;;;;;;5080140;28;20180;-56
2024/01/18 09:27:18;;;;;;;14.07;10.00;;;;;;;;;;5089372;28;20183;-55
2024/01/18 09:29:44;;;;;;;17.13;8.70;;;;;;;;;;5087760;28;20167;-54
2024/01/18 09:32:11;;;;;;;12.40;8.87;;;;;;;;;;5088132;28;20176;-54
2024/01/18 09:34:38;;;;;;;12.07;9.07;;;;;;;;;;5087407;28;20245;-55
2024/01/18 09:37:04;;;;;;;11.57;9.57;;;;;;;;;;5091415;28;20176;-53
2024/01/18 09:39:30;;;;;;;11.73;8.43;;;;;;;;;;5090468;28;20179;-52
2024/01/18 09:41:56;;;;;;;10.20;8.10;;;;;;;;;;5090143;28;20238;-53
2024/01/18 09:44:32;;;;;;;11.07;8.07;;;;;;;;;;5090719;28;20164;-56
2024/01/18 09:47:01;;;;;;;11.43;8.60;;;;;;;;;;5082576;28;20168;-54
2024/01/18 09:49:28;;;;;;;13.73;8.67;;;;;;;;;;5085499;28;20164;-57
2024/01/18 09:51:57;;;;;;;20.90;8.90;;;;;;;;;;5089567;28;20176;-55
2024/01/18 09:54:23;;;;;;;11.73;7.13;;;;;;;;;;5089419;28;20780;-55
2024/01/18 09:56:52;;;;;;;9.60;7.70;;;;;;;;;;5089831;28;20176;-56
2024/01/18 09:59:19;;;;;;;14.27;7.60;;;;;;;;;;5089234;28;20238;-54
2024/01/18 10:01:45;;;;;;;10.60;7.30;;;;;;;;;;5090412;28;20196;-55
2024/01/18 10:04:14;;;;;;;10.07;7.23;;;;;;;;;;5094184;28;20230;-57
2024/01/18 10:06:41;;;;;;;11.00;7.03;;;;;;;;;;5093118;28;20214;-55
2024/01/18 10:09:13;;;;;;;8.40;6.70;;;;;;;;;;5094182;28;20240;-53
2024/01/18 10:11:40;;;;;;;9.93;7.10;;;;;;;;;;5094701;28;20171;-61
2024/01/18 10:14:07;;;;;;;10.73;7.10;;;;;;;;;;5092596;28;20680;-61
2024/01/18 10:16:34;;;;;;;10.03;7.40;;;;;;;;;;5092689;28;20188;-61
2024/01/18 10:19:00;;;;;;;9.83;7.20;;;;;;;;;;5091587;28;20228;-52
2024/01/18 10:21:27;;;;;;;7.90;6.60;;;;;;;;;;5092438;28;20688;-55
2024/01/18 10:23:54;;;;;;;9.70;6.93;;;;;;;;;;5091562;28;20172;-53
2024/01/18 10:26:27;;;;;;;9.77;6.60;;;;;;;;;;5091008;28;20274;-54
2024/01/18 10:28:53;;;;;;;7.83;6.13;;;;;;;;;;5088871;28;20168;-56
2024/01/18 10:31:19;;;;;;;9.27;6.37;;;;;;;;;;5090520;28;20233;-56
2024/01/18 10:33:46;;;;;;;9.47;6.70;;;;;;;;;;5089498;28;20559;-55
2024/01/18 10:36:13;;;;;;;9.33;5.80;;;;;;;;;;5089296;28;20175;-54
2024/01/18 10:38:39;;;;;;;9.93;6.33;;;;;;;;;;5087992;28;20639;-57
2024/01/18 10:41:08;;;;;;;9.93;6.40;;;;;;;;;;5090144;28;20469;-54
2024/01/18 10:43:35;;;;;;;8.20;5.70;;;;;;;;;;5085789;28;20207;-55
2024/01/18 10:46:01;;;;;;;12.33;6.83;;;;;;;;;;5081296;28;20431;-53
2024/01/18 10:48:27;;;;;;;9.30;6.07;;;;;;;;;;5084204;28;20233;-55
2024/01/18 10:50:55;;;;;;;8.90;6.33;;;;;;;;;;5086377;28;20178;-56
2024/01/18 10:53:22;;;;;;;9.47;6.63;;;;;;;;;;5085386;28;20237;-54
2024/01/18 10:55:48;;;;;;;6.93;5.93;;;;;;;;;;5087438;28;20435;-53
2024/01/18 10:58:14;;;;;;;7.80;6.10;;;;;;;;;;5085953;28;20172;-56
2024/01/18 11:00:40;;;;;;;9.50;5.97;;;;;;;;;;5087775;28;20172;-54
2024/01/18 11:03:06;;;;;;;6.57;5.77;;;;;;;;;;5086611;28;20599;-57
2024/01/18 11:05:33;;;;;;;7.20;5.47;;;;;;;;;;5085735;28;20245;-55
2024/01/18 11:07:59;;;;;;;9.60;5.67;;;;;;;;;;5084694;28;20168;-55
2024/01/18 11:10:26;;;;;;;10.30;5.90;;;;;;;;;;5082266;28;20172;-54
2024/01/18 11:12:52;;;;;;;6.60;5.57;;;;;;;;;;5083361;28;20275;-53
2024/01/18 11:15:19;;;;;;;6.70;5.17;;;;;;;;;;5082748;28;20630;-57
2024/01/18 11:17:48;;;;;;;10.30;5.60;;;;;;;;;;5080940;28;20558;-53
2024/01/18 11:20:15;;;;;;;5.40;4.87;;;;;;;;;;5084381;28;20202;-56
2024/01/18 11:22:41;;;;;;;5.93;4.53;;;;;;;;;;5084283;28;20237;-57
2024/01/18 11:25:08;;;;;;;7.33;5.00;;;;;;;;;;5084513;28;20175;-51
2024/01/18 11:27:36;;;;;;;6.87;5.40;;;;;;;;;;5086232;28;20432;-58
2024/01/18 11:30:03;;;;;;;5.33;4.63;;;;;;;;;;5085125;28;20233;-56
2024/01/18 11:32:29;;;;;;;6.23;4.27;;;;;;;;;;5086350;28;20179;-57
2024/01/18 11:35:07;;;;;;;4.73;4.03;;;;;;;;;;5084880;28;20458;-55
2024/01/18 11:37:33;;;;;;;9.83;4.83;;;;;;;;;;5085823;28;20164;-53
2024/01/18 11:39:59;;;;;;;5.67;3.43;;;;;;;;;;5082821;28;20180;-52
2024/01/18 11:42:26;;;;;;;4.17;3.77;;;;;;;;;;5080753;28;20204;-57
2024/01/18 11:45:07;;;;;;;7.37;3.90;;;;;;;;;;5085932;28;20775;-57
2024/01/18 11:47:34;;;;;;;9.73;4.47;;;;;;;;;;5089179;28;20160;-56
2024/01/18 11:50:01;;;;;;;4.83;3.80;;;;;;;;;;5090266;28;20180;-58
2024/01/18 11:52:28;;;;;;;6.40;4.20;;;;;;;;;;5089541;28;20176;-56
2024/01/18 11:54:56;;;;;;;11.27;5.07;;;;;;;;;;5091150;28;20244;-57
2024/01/18 11:57:22;;;;;;;7.37;4.53;;;;;;;;;;5091024;28;20580;-57
2024/01/18 11:59:48;;;;;;;6.53;3.50;;;;;;;;;;5091326;28;20176;-53
2024/01/18 12:02:15;;;;;;;4.33;3.30;;;;;;;;;;5090912;28;20210;-56
2024/01/18 12:04:41;;;;;;;4.77;2.93;;;;;;;;;;5092567;28;20199;-54
2024/01/18 12:07:08;;;;;;;3.80;3.20;;;;;;;;;;5090569;28;20172;-54
2024/01/18 12:09:34;;;;;;;2.80;2.60;;;;;;;;;;5089904;28;20180;-57
2024/01/18 12:12:00;;;;;;;6.70;3.00;;;;;;;;;;5090673;28;20179;-54
2024/01/18 12:14:27;;;;;;;2.10;1.90;;;;;;;;;;5088751;28;20224;-51
2024/01/18 12:16:53;;;;;;;3.60;2.23;;;;;;;;;;5089067;28;20174;-55
2024/01/18 12:19:32;;;;;;;3.03;2.33;;;;;;;;;;5088303;28;20557;-55
2024/01/18 12:21:58;;;;;;;4.53;2.20;;;;;;;;;;5088046;28;20589;-57
2024/01/18 12:24:24;;;;;;;2.73;2.27;;;;;;;;;;5086675;28;20176;-57
2024/01/18 12:26:50;;;;;;;3.27;2.50;;;;;;;;;;5086417;28;20678;-57
2024/01/18 12:29:16;;;;;;;7.33;2.53;;;;;;;;;;5085061;28;20178;-53
2024/01/18 12:31:45;;;;;;;2.53;2.13;;;;;;;;;;5084919;28;20461;-51
2024/01/18 12:34:11;;;;;;;4.83;2.70;;;;;;;;;;5085316;28;20254;-53
2024/01/18 12:36:38;;;;;;;5.40;2.53;;;;;;;;;;5085367;28;20713;-55
2024/01/18 12:39:04;;;;;;;4.00;2.50;;;;;;;;;;5087306;28;20176;-52
2024/01/18 12:41:30;;;;;;;2.57;1.93;;;;;;;;;;5087274;28;20179;-53
2024/01/18 12:44:03;;;;;;;5.50;1.97;;;;;;;;;;5087089;28;20253;-56
2024/01/18 12:46:29;;;;;;;5.20;2.50;;;;;;;;;;5089264;28;20164;-53
2024/01/18 12:48:56;;;;;;;3.90;2.43;;;;;;;;;;5088058;28;20168;-58
2024/01/18 12:51:22;;;;;;;2.30;1.70;;;;;;;;;;5086996;28;20164;-56
2024/01/18 12:53:48;;;;;;;3.73;1.60;;;;;;;;;;5085771;28;20238;-55
2024/01/18 12:56:17;;;;;;;4.33;2.23;;;;;;;;;;5085157;28;20176;-55
2024/01/18 12:58:43;;;;;;;4.70;1.97;;;;;;;;;;5084258;28;20195;-56
2024/01/18 13:01:09;;;;;;;3.20;1.60;;;;;;;;;;5083679;28;20175;-55
2024/01/18 13:03:35;;;;;;;1.90;1.77;;;;;;;;;;5083466;28;20269;-56
2024/01/18 13:06:02;;;;;;;3.10;1.80;;;;;;;;;;5083423;28;20175;-54
2024/01/18 13:08:28;;;;;;;5.37;2.33;;;;;;;;;;5083559;28;20331;-55
2024/01/18 13:10:54;;;;;;;3.00;1.40;;;;;;;;;;5084093;28;20211;-56
2024/01/18 13:13:20;;;;;;;2.97;1.83;;;;;;;;;;5086322;28;20168;-55
2024/01/18 13:15:46;;;;;;;4.07;1.77;;;;;;;;;;5087576;28;20250;-57
2024/01/18 13:18:13;;;;;;;5.23;1.53;;;;;;;;;;5098661;28;20321;-53
2024/01/18 13:20:39;;;;;;;1.20;1.00;;;;;;;;;;5081379;28;20207;-55
2024/01/18 13:23:05;;;;;;;1.80;1.23;;;;;;;;;;5099578;28;20195;-55
2024/01/18 13:25:31;;;;;;;4.23;1.30;;;;;;;;;;5101917;28;20546;-55
2024/01/18 13:27:57;;;;;;;2.67;1.30;;;;;;;;;;5103062;28;20175;-55
2024/01/18 13:30:23;;;;;;;3.37;1.30;;;;;;;;;;5089006;28;20581;-56
2024/01/18 13:32:50;;;;;;;3.37;1.23;;;;;;;;;;5089462;28;20194;-56
2024/01/18 13:35:16;;;;;;;3.90;1.33;;;;;;;;;;5087939;28;20370;-56
2024/01/18 13:37:42;;;;;;;2.07;0.80;;;;;;;;;;5110108;28;20248;-57
2024/01/18 13:40:08;;;;;;;2.80;1.30;;;;;;;;;;5090980;28;20491;-53
2024/01/18 13:42:35;;;;;;;10.50;1.20;;;;;;;;;;5089056;28;20207;-52
2024/01/18 13:45:01;;;;;;;2.70;1.17;;;;;;;;;;5087649;28;20359;-52
2024/01/18 13:47:26;;;;;;;2.10;1.00;;;;;;;;;;5087461;28;20399;-54
2024/01/18 13:49:52;;;;;;;2.43;1.40;;;;;;;;;;5087710;28;20327;-53
2024/01/18 13:52:20;;;;;;;3.03;0.90;;;;;;;;;;5105969;28;20183;-53
2024/01/18 13:54:46;;;;;;;2.63;0.90;;;;;;;;;;5107820;28;20179;-57
2024/01/18 13:57:13;;;;;;;2.83;1.20;;;;;;;;;;5108205;28;20325;-57
2024/01/18 13:59:39;;;;;;;2.23;0.90;;;;;;;;;;5094424;28;20259;-56
2024/01/18 14:02:05;;;;;;;4.77;1.47;;;;;;;;;;5113263;28;20785;-56
2024/01/18 14:04:31;;;;;;;2.40;0.80;;;;;;;;;;5096060;28;20552;-57
2024/01/18 14:06:58;;;;;;;2.00;0.90;;;;;;;;;;5095835;28;20264;-56
2024/01/18 14:09:24;;;;;;;2.47;1.13;;;;;;;;;;5094876;28;20730;-55
2024/01/18 14:11:51;;;;;;;4.67;1.40;;;;;;;;;;5111801;28;20171;-55
2024/01/18 14:14:16;;;;;;;2.83;1.00;;;;;;;;;;5092023;28;20234;-57
2024/01/18 14:16:42;;;;;;;4.33;1.57;;;;;;;;;;5093238;28;20168;-57
2024/01/18 14:19:09;;;;;;;3.50;1.40;;;;;;;;;;5091493;28;20447;-57
2024/01/18 14:21:35;;;;;;;1.73;0.80;;;;;;;;;;5091628;28;20168;-54
2024/01/18 14:24:01;;;;;;;3.73;1.40;;;;;;;;;;5090390;28;20180;-58